空港情報

日本の空港の気象及び、管制情報です。
気象情報はより詳細な情報が取得できる「AVIATION WEATER CENTER」 から取得しているため、VATSIMの気象情報と若干のタイムラグが生じることがあります。

VRCのフィールド設定用空港一覧はこちらをご覧ください。

RJCG Sapporo Control

RJCW / Wakkanai

NO RADAR

RADIO

08/26 2200x45

民間 civil

過去5時間に発表されたMETARがありません。

RJER / Rishiri

NO RADAR

REMOTE

25/07 1800x45

民間 civil

過去5時間に発表されたMETARがありません。

RJEB / Monbetsu

NO RADAR

REMOTE

32/14 2000x45

民間 civil

過去5時間に発表されたMETARがありません。

RJCM / Memanbetsu

NO RADAR

TOWER

36/18 2500x45

民間 civil

過去5時間に発表されたMETARがありません。

RJEC / Asahikawa

NO RADAR

TOWER

34/16 2500x60

民間 civil

過去5時間に発表されたMETARがありません。

RJCN / Nakashibetsu

NO RADAR

RADIO

08/26 2000x45

民間 civil

過去5時間に発表されたMETARがありません。

RJCK / Kushiro

NO RADAR

TOWER

17/35 2500x45

民間 civil

過去5時間に発表されたMETARがありません。

RJCO / Sapporo

RJCO_APP

TOWER

14/32 1500x30

共用 dual

過去5時間に発表されたMETARがありません。

RJCJ / Chitose

RJCC_APP

TOWER

36R/18L 3000x60
36L/18R 2700x45

自衛隊 military

過去5時間に発表されたMETARがありません。

RJCC / NewChitose
VMC

RJCC_APP

TOWER

01L/19R 3000x60
01R/19L 3000x60

民間 civil

9999

000@1KT

30.18

RJCC 241630Z VRB01KT 9999 FEW020 SCT030 12/10 Q1022 RMK 1CU020 3CU030 A3020

RJCB / Obihiro

NO RADAR

TOWER

35/17 2500x45

民間 civil

過去5時間に発表されたMETARがありません。

RJEO / Okushiri

NO RADAR

REMOTE

12/30 1500x45

民間 civil

過去5時間に発表されたMETARがありません。

RJCH / Hakodate

RJCH_APP

TOWER

12/30 3000x45

民間 civil

過去5時間に発表されたMETARがありません。

RJSA / Aomori
VMC

NO RADAR

TOWER

24/06 3000x60

民間 civil

9999

070@13G24KT

30.09

RJSA 241200Z 07013G24KT 9999 FEW020 SCT030 BKN/// 15/09 Q1019

RJSO / Ominato

RJSM_APP

TOWER

04/22 600x45

自衛隊 military

過去5時間に発表されたMETARがありません。

RJSM / Misawa
VMC

RJSM_APP

TOWER

10/28 3050x45

共用 dual

9999

100@15KT

30.15

RJSM 241600Z 10015KT 9999 SCT030 BKN050 BKN/// 17/10 Q1021

RJSH / Hachinohe
VMC

RJSM_APP

TOWER

25/07 2250x45

自衛隊 military

9999

090@17G27KT

30.12

RJSH 241355Z 09017G27KT 9999 SCT030 BKN045 17/11 Q1020 RMK 3CU030 7SC045 A3014

RJSK / Akita
VMC

NO RADAR

TOWER

10/28 2500x60

民間 civil

9999

120@9KT

30.00

RJSK 241200Z 12009KT 9999 FEW050 SCT170 17/09 Q1016

RJSI / Hanamaki

NO RADAR

RADIO

20/02 2500x45

民間 civil

過去5時間に発表されたMETARがありません。

RJSR / Odate-Noshiro

NO RADAR

REMOTE

11/29 2000x45

民間 civil

過去5時間に発表されたMETARがありません。

RJTG Tokyo Control

RJSY / Shonai
VMC

NO RADAR

RADIO

09/27 2000x45

民間 civil

9999

110@22KT

29.94

RJSY 241200Z 11022KT 9999 FEW040 SCT130 BKN/// 18/11 Q1014

RJSC / Yamagata

NO RADAR

RADIO

01/19 2000x45

民間 civil

過去5時間に発表されたMETARがありません。

RJST / Matsushima

RJSS_APP

TOWER

07/25 2071x46
15/33 1500x46

自衛隊 military

過去5時間に発表されたMETARがありません。

RJSS / Sendai
VMC

RJSS_APP

TOWER

27/09 3000x45
12/30 1200x45

民間 civil

9999

350@7KT

30.06

RJSS 241200Z 35007KT 9999 FEW008 BKN020 18/13 Q1018

RJSD / Sado
VMC

NO RADAR

REMOTE

10/28 890x25

民間 civil

9999

050@5KT

29.85

RJSD 241600Z AUTO 05005KT 9999 NSC 21/15 Q1011

RJSN / Niigata
VMC

RJSN_APP

TOWER

10/28 2500x45
04/22 1314x45

民間 civil

9999

120@4KT

29.88

RJSN 241200Z 12004KT 040V200 9999 FEW030 SCT090 BKN150 21/15 Q1012

RJSF / Fukushima

NO RADAR

RADIO

01/19 2500x60

民間 civil

過去5時間に発表されたMETARがありません。

RJAH / Ibaraki/Hyakuri
IMC

RJAH_APP

TOWER

03L/21R 2700x45
03R/21L 2700x45

共用 dual

3000

020@15KT

29.85

RJAH 241648Z 02015KT 3000 -SHRA BR FEW005 BKN008 OVC012 19/18 Q1011 RMK 1ST005 6ST008 8CU012 A2987 VIS SE-SW 2000M

RJTT / Tokyo
VMC

RJTT_APP

TOWER

34LR/16RL 3000x60
04/22&05/23 2500x60

民間 civil

9999

360@21KT

29.85

RJTT 241630Z 36021KT 9999 VCSH FEW017 BKN025 BKN035 20/17 Q1011 NOSIG RMK 2CU017 5SC025 7SC035 A2987

RJAA / Narita
IMC

RJTT_APP

TOWER

34L/16R 4000x60
34R/16L 2500x60

民間 civil

3000

010@14KT

29.82

RJAA 241646Z 01014KT 3000 -SHRA BR FEW003 BKN005 BKN010 20/20 Q1010 RMK 1ST003 5ST005 7CU010 A2985

RJTL / Shimofusa

RJTT_APP

TOWER

19/01 2250x45

自衛隊 military

過去5時間に発表されたMETARがありません。

RJTE / Tateyama
VMC

RJTT_APP

TOWER

09/27 300x45

自衛隊 military

4900

020@12KT

29.85

RJTE 241309Z 02012KT 4900 -SHRA BR SCT008 BKN014 20/19 Q1011 RMK 3ST008 7CU014 A2986

RJTO / Oshima

NO RADAR

RADIO

03/21 1800x45

民間 civil

過去5時間に発表されたMETARがありません。

RJTK / Kisarazu

NO RADAR

TOWER

02/20 1830x45

自衛隊 military

過去5時間に発表されたMETARがありません。

RJAN / Niijima

NO RADAR

REMOTE

11/29 800x25

自衛隊 military

過去5時間に発表されたMETARがありません。

RJAZ / Kozushima

NO RADAR

REMOTE

11/29 800x25

民間 civil

過去5時間に発表されたMETARがありません。

RJTH / Hachijojima

NO RADAR

RADIO

26/08 2000x45

民間 civil

過去5時間に発表されたMETARがありません。

RJTF / Chofu

NO RADAR

Flight Service

35/17 800x30

民間 civil

過去5時間に発表されたMETARがありません。

RJTQ / Miyake

NO RADAR

REMOTE

02/20 1200x30

民間 civil

過去5時間に発表されたMETARがありません。

RJTC / Tachikawa

NO RADAR

TOWER

01/19 900x45

自衛隊 military

過去5時間に発表されたMETARがありません。

RJTA / Atsugi

NO RADAR

TOWER

01/19 2438x45

自衛隊 military

過去5時間に発表されたMETARがありません。

RJTU / Utsunomiya

RJTY_APP

TOWER

01/19 1700x45

自衛隊 military

過去5時間に発表されたMETARがありません。

RJTJ / Iruma

RJTY_APP

TOWER

17/35 2000x45

自衛隊 military

過去5時間に発表されたMETARがありません。

RJTY / Yokota
VMC

RJTY_APP

TOWER

18/36 3353x60

自衛隊 military

9999

320@8KT

29.97

RJTY 241556Z AUTO 32008KT 10SM OVC026 18/15 A2997 RMK AO2 SLP150 T01820154 FZRANO $

RJAF / Matsumoto

NO RADAR

RADIO

18/36 2000x45

民間 civil

過去5時間に発表されたMETARがありません。

RJNS / Shizuoka
VMC

NO RADAR

RADIO

30/12 2500x60

民間 civil

9999

060@12G24KT

29.79

RJNS 241200Z 06012G24KT 030V100 9999 FEW020 BKN/// 24/16 Q1009

RJNY / Yaizu-Shizuhama
VMC

NO RADAR

TOWER

27/09 1500x45

自衛隊 military

9999

060@12KT

29.73

RJNY 241631Z 06012KT 9999 FEW020 BKN180 BKN/// 25/15 Q1007 RMK 1CU020 5AC180 A2976

RJNH / Hamamatsu

RJNH_APP

TOWER

09/27 2550x60

自衛隊 military

過去5時間に発表されたMETARがありません。

RJGG / Chubu
VMC

RJGG_APP

TOWER

36/18 3500x60

民間 civil

9999

000@2KT

29.73

RJGG 241630Z VRB02KT 9999 -RA FEW020 BKN060 BKN080 25/19 Q1007 BECMG 24005KT

RJNA / Nagoya

RJGG_APP

TOWER

34/16 2740x45

民間 civil

過去5時間に発表されたMETARがありません。

RJNG / Gifu

RJGG_APP

TOWER

28/10 2710x46

自衛隊 military

過去5時間に発表されたMETARがありません。

RJOE / Akeno

RJOE_APP

TOWER

13/31 500x30
04/22 500x30

自衛隊 military

過去5時間に発表されたMETARがありません。

RJNK / Komatsu
VMC

RJNK_APP

TOWER

06/24 2700x45

共用 dual

9999

180@3KT

29.76

RJNK 241600Z 18003KT 9999 -SHRA FEW025 SCT050 BKN080 21/20 Q1008

RJNW / Noto

NO RADAR

RADIO

25/07 2000x45

民間 civil

過去5時間に発表されたMETARがありません。

RJNT / Toyama
VMC

NO RADAR

TOWER

20/02 2000x45

民間 civil

9999

240@2KT

29.79

RJNT 241200Z 24002KT 9999 -SHRA FEW020 BKN090 BKN110 23/21 Q1009

RJNF / Fukui

NO RADAR

REMOTE

18/36 1200x30

民間 civil

過去5時間に発表されたMETARがありません。

RJBD / Nanki-Shirahama

NO RADAR

RADIO

15/33 2000x45

民間 civil

過去5時間に発表されたMETARがありません。

RJOY / Yao

RJBB_APP

TOWER

27/09 1490x45
13/31 1200x30

民間 civil

過去5時間に発表されたMETARがありません。

RJOO / Osaka

RJBB_APP

TOWER

32L/14R 3000x60
32R/14L 1830x45

民間 civil

過去5時間に発表されたMETARがありません。

RJOB / Okayama
VMC

RJBB_APP

TOWER

07/25 3000x45

民間 civil

9000

310@3KT

29.85

RJOB 241200Z 31003KT 270V330 9000 -RA FEW006 SCT030 BKN060 21/19 Q1011

RJBB / Kansai
IMC

RJBB_APP

TOWER

06R/24L 3500x60
06L/24R 4000x60

民間 civil

7000

000@1KT

29.73

RJBB 241640Z AUTO VRB01KT 7000 -RA FEW003 BKN005 BKN007 22/21 Q1007 RMK A2976

RJBE / Kobe
VMC

RJBB_APP

TOWER

09/27 2500x60

民間 civil

9999

270@9KT

29.79

RJBE 241300Z 27009KT 9999 -RA FEW015 SCT050 BKN070 23/20 Q1009

RJBT / Tajima

NO RADAR

REMOTE

01/19 1200x30

民間 civil

過去5時間に発表されたMETARがありません。

RJOR / Tottori
VMC

NO RADAR

RADIO

10/28 2000x45

民間 civil

7000

200@3KT

29.82

RJOR 241200Z 20003KT 7000 -RA FEW010 SCT060 OVC100 21/20 Q1010

RJNO / Oki

NO RADAR

REMOTE

07/25 2000x45

民間 civil

過去5時間に発表されたMETARがありません。

RJOH / Miho
VMC

RJOH_APP

TOWER

25/07 2500x45

共用 dual

9999

200@2KT

29.79

RJOH 241600Z 20002KT 9999 -RA FEW007 SCT050 OVC080 20/20 Q1009

RJOC / Izumo

RJOH_APP

RADIO

07/25 2000x45

共用 dual

過去5時間に発表されたMETARがありません。

RJDG Fukuoka Control

RJOT / Takamatsu
IMC

RJBB_APP

TOWER

26/08 2500x60

民間 civil

2000

000@2KT

29.82

RJOT 241248Z VRB02KT 2000 -RA BR FEW000 SCT002 BKN005 20/20 Q1010 RMK 1ST000 3ST002 5ST005 A2983

RJOK / Kochi

RJBB_APP

TOWER

32/14 2500x45

民間 civil

過去5時間に発表されたMETARがありません。

RJOS / Tokushima
IMC

RJOS_APP

TOWER

29/11 2500x45

共用 dual

4500

030@7KT

29.73

RJOS 241630Z 03007KT 4500 -SHRA BR FEW004 SCT008 BKN015 21/20 Q1007 RMK 1ST004 4ST008 6CU015 A2976

RJOA / Hiroshima
IMC

RJOA_APP

TOWER

10/28 3000x60

民間 civil

3500

030@3KT

29.82

RJOA 241300Z 03003KT 360V060 3500 SHRA BR PRFG FEW000 SCT025 BKN045 19/18 Q1010

RJBH / Hiroshimanishi

NO RADAR

Flight Service

04/22 1800x45

民間 civil

過去5時間に発表されたMETARがありません。

RJOI / Iwakuni
VMC

RJOI_APP

TOWER

02/20 2440x60

共用 dual

8000

310@5KT

29.76

RJOI 241640Z 31005KT 8000 SHRA BR FEW005 BKN020 OVC035 21/18 A2976 RMK SLP076

RJOM / Matsuyama
VMC

RJOI_APP

TOWER

14/32 2500x45

民間 civil

7000

020@7KT

29.79

RJOM 241200Z 02007KT 7000 -SHRA FEW007 SCT020 BKN050 22/22 Q1009

RJOZ / Ozuki
VMC

RJFZ_APP

TOWER

35/17 1201x61
12/30 899x46

自衛隊 military

9999

340@4KT

29.76

RJOZ 241429Z 34004KT 320V020 9999 -RA FEW005 BKN030 OVC040 21/20 Q1008 RMK 1ST005 5SC030 8SC040 A2977

RJOF / Hofu
VMC

RJFZ_APP

TOWER

30/12 1180x60
01/19 1480x45

自衛隊 military

9999

010@3KT

29.76

RJOF 241350Z 01003KT 9999 -SHRA FEW006 BKN025 20/20 Q1008 RMK 1ST006 7CU025 A2978

RJDC / Yamaguchi-Ube
VMC

RJFZ_APP

RADIO

07/25 2500x45

民間 civil

8000

020@4KT

29.79

RJDC 241200Z 02004KT 8000 -SHRA FEW008 BKN015 BKN035 21/20 Q1009

RJFR / Kitakyushu
VMC

RJFZ_APP

TOWER

18/36 2500x60

民間 civil

9999

010@9KT

29.73

RJFR 241600Z 01009KT 9999 -SHRA FEW006 SCT015 BKN025 21/20 Q1007

RJFZ / Tsuiki

RJFZ_APP

TOWER

25/07 2399x46

自衛隊 military

過去5時間に発表されたMETARがありません。

RJOW / Iwami

NO RADAR

REMOTE

11/29 2000x45

民間 civil

過去5時間に発表されたMETARがありません。

RJDT / Tsushima

NO RADAR

REMOTE

32/14 1900x45

民間 civil

過去5時間に発表されたMETARがありません。

RJFF / Fukuoka
VMC

RJFF_APP

TOWER

16/34 2800x60

民間 civil

8000

340@3KT

29.73

RJFF 241634Z AUTO 34003KT 300V010 8000 RA SCT032 BKN033 BKN050 21/20 Q1007 RMK A2974 RI003

RJFS / Saga
VMC

RJFF_APP

RADIO

29/11 2000x45

民間 civil

8000

330@4KT

29.73

RJFS 241400Z 33004KT 8000 -RA FEW035 SCT060 BKN100 20/20 Q1007

RJFA / Ashiya

RJFF_APP

TOWER

12/30 1640x46

自衛隊 military

過去5時間に発表されたMETARがありません。

RJDB / Iki

RJFF_APP

REMOTE

20/02 1200x30

民間 civil

過去5時間に発表されたMETARがありません。

RJFO / Oita
VMC

RJFO_APP

TOWER

01/19 3000x45

民間 civil

8000

010@7KT

29.76

RJFO 241300Z 01007KT 320V030 8000 -SHRA FEW006 SCT010 BKN015 21/20 Q1008

RJFU / Nagasaki
VMC

RJFU_APP

TOWER

32/14 3000x60

民間 civil

9999

360@9KT

29.76

RJFU 241227Z 36009KT 9999 -RA FEW005 SCT010 BKN050 21/20 Q1008 RMK 1ST005 3CU010 5SC050 A2977

RJDU / Omura

RJFU_APP

TOWER

18/36 1200x30

自衛隊 military

過去5時間に発表されたMETARがありません。

RJFE / Fukue

NO RADAR

RADIO

03/21 2000x45

民間 civil

過去5時間に発表されたMETARがありません。

RJDO / Ojika

NO RADAR

REMOTE

03/21 800x30

民間 civil

過去5時間に発表されたMETARがありません。

RJDK / Kamigoto

NO RADAR

REMOTE

17/35 800x30

民間 civil

過去5時間に発表されたMETARがありません。

RJDA / Amakusa

NO RADAR

Flight Service

31/13 1000x30

民間 civil

過去5時間に発表されたMETARがありません。

RJFT / Kumamoto
IMC

RJFT_APP

TOWER

07/25 3000x45

民間 civil

1500

360@4KT

29.76

RJFT 241200Z 36004KT 1500 R07/1000VP1800D SHRA BR BCFG FEW001 SCT002 BKN005 20/20 Q1008

RJFN / Nyutabaru

RJFM_APP

TOWER

28/10 2701x46

自衛隊 military

過去5時間に発表されたMETARがありません。

RJFM / Miyazaki
IMC

RJFM_APP

TOWER

27/09 2500x45

民間 civil

2500

040@20KT

29.70

RJFM 241200Z 04020KT 2500 SHRA BR FEW003 BKN007 BKN020 22/22 Q1006

RJFK / Kagoshima
IMC

RJFK_APP

TOWER

34/16 3000x45

民間 civil

2000

320@6KT

29.70

RJFK 241247Z 32006KT 280V020 2000 R34/1000VP2000D +SHRA BCFG BR FEW003 SCT009 BKN020 20/20 Q1006 RMK 1ST003 4ST009 6CU020 A2973 FG ALL QUAD RI++

RJFY / Kanoya
VMC

RJFY_APP

TOWER

26L/08R 2250x45
26R/08L 1200x40

自衛隊 military

5000

030@11KT

29.68

RJFY 241307Z 03011KT 5000 -SHRA BR FEW003 SCT010 OVC020 FEW020CB 21/19 Q1005 RMK 2ST003 4ST010 8CU020 2CB020 A2968 CB 5KM NE MOV NE

RJFG / Tanegashima

NO RADAR

RADIO

31/13 2000x45

民間 civil

過去5時間に発表されたMETARがありません。

RJFC / Yakushima

NO RADAR

REMOTE

14/32 1500x45

民間 civil

過去5時間に発表されたMETARがありません。

RJBG Kobe Control

ROAH / Naha
VMC

ROAH_APP

TOWER

36/18 3000x45

共用 dual

9999

350@12KT

29.73

ROAH 241630Z 35012KT 9999 VCSH FEW015 BKN035 26/23 Q1007 RMK 1CU015 6CU035 A2974

RORA / Aguni

ROAH_APP

REMOTE

01/19 800x25

民間 civil

過去5時間に発表されたMETARがありません。

ROKJ / Kumejima

ROAH_APP

REMOTE

03/21 2000x45

民間 civil

過去5時間に発表されたMETARがありません。

RODN / Kadena
VMC

ROAH_APP

TOWER

05L/23R 3688x91
05R/23L 3688x61

自衛隊 military

9999

340@8G16KT

29.74

RODN 241646Z AUTO 34008G16KT 10SM FEW021 BKN028 OVC037 26/22 A2974 RMK AO2 CIG 023V028 CIG 022 RWY23 SLP076 $

ROTM / Futenma
VMC

ROAH_APP

TOWER

06/24 2740x45

自衛隊 military

9999

330@8KT

29.76

ROTM 241556Z 33008KT 9999 SCT022 BKN045 26/23 A2976 RMK SLP062 T02560228

RORS / Shimojishima

RORS_APP

TOWER

17/35 3000x60

民間 civil

過去5時間に発表されたMETARがありません。

ROMY / Miyako

RORS_APP

TOWER

04/22 2000x45

民間 civil

過去5時間に発表されたMETARがありません。

ROIG / New Ishigaki

RORS_APP

TOWER

22/04 2000x45

民間 civil

過去5時間に発表されたMETARがありません。

RORT / Tarama

RORS_APP

REMOTE

36/18 1500x45

民間 civil

過去5時間に発表されたMETARがありません。

RJKA / Amami

NO RADAR

RADIO

03/21 2000x45

民間 civil

過去5時間に発表されたMETARがありません。

RJKI / Kikai
VMC

NO RADAR

REMOTE

07/25 1200x30

民間 civil

9999

270@9KT

29.65

RJKI 241600Z AUTO 27009KT 9999 BKN019 BKN044 OVC160 27/25 Q1004

RJKN / Tokunoshima

NO RADAR

REMOTE

19/01 2000x45

民間 civil

過去5時間に発表されたMETARがありません。

RJKB / Okierabu

NO RADAR

REMOTE

04/22 1350x45

民間 civil

過去5時間に発表されたMETARがありません。

RORY / Yoron
VMC

NO RADAR

REMOTE

32/14 1320x30

民間 civil

9999

320@13KT

29.70

RORY 241600Z AUTO 32013KT 9999 SCT018 SCT038 OVC046 26/23 Q1006

RORK / Kitadaito
VMC

NO RADAR

REMOTE

03/21 1500x45

民間 civil

9999

280@4KT

29.68

RORK 241600Z AUTO 28004KT 9999 FEW015 SCT039 BKN044 27/25 Q1005

ROMD / Minami-daito
VMC

NO RADAR

REMOTE

02/20 1500x45

民間 civil

9999

250@3KT

29.70

ROMD 241600Z AUTO 25003KT 9999 FEW017 SCT038 BKN060 27/26 Q1006

ROYN / Yonaguni
VMC

NO RADAR

REMOTE

26/08 2000x45

民間 civil

9999

010@17KT

29.79

ROYN 241600Z AUTO 01017KT 9999 FEW022 OVC042 27/23 Q1009

RORH / Hateruma

NO RADAR

REMOTE

02/20 800x25

民間 civil

過去5時間に発表されたMETARがありません。

ROKR / Kerama

NO RADAR

REMOTE

02/20 800x25

民間 civil

過去5時間に発表されたMETARがありません。